Time;durP1;ratioP1;P1;durP2;ratioP2;P2;SDS_P1;SDS_P2;PMS_P1;PMS_P2;Temp;Humidity;BMP_temperature;BMP_pressure;BME280_temperature;BME280_humidity;BME280_pressure;Samples;Min_cycle;Max_cycle;Signal;HPM_P1;HPM_P2
2023/03/24 00:00:12;;;;;;;;;;;;;;;15.99;62.00;96186.94;4991746;28;19917;-78
2023/03/24 00:02:40;;;;;;;;;;;;;;;15.96;61.98;96182.28;5005978;28;19918;-78
2023/03/24 00:05:07;;;;;;;;;;;;;;;15.97;62.00;96177.81;5040517;28;19925;-79
2023/03/24 00:07:32;;;;;;;;;;;;;;;15.93;61.87;96177.63;5042789;28;20381;-80
2023/03/24 00:09:58;;;;;;;;;;;;;;;16.00;61.44;96170.09;5012860;28;19921;-79
2023/03/24 00:12:24;;;;;;;;;;;;;;;15.88;61.83;96160.16;4990362;28;19983;-78
2023/03/24 00:14:53;;;;;;;;;;;;;;;15.74;62.21;96160.22;5006751;28;19917;-78
2023/03/24 00:17:18;;;;;;;;;;;;;;;15.80;61.75;96149.63;4989139;28;20389;-79
2023/03/24 00:19:44;;;;;;;;;;;;;;;15.79;61.77;96151.50;4992673;28;19929;-78
2023/03/24 00:22:13;;;;;;;;;;;;;;;15.79;61.72;96153.34;4994093;28;19944;-79
2023/03/24 00:24:39;;;;;;;;;;;;;;;15.76;61.99;96149.47;4988512;28;19970;-78
2023/03/24 00:27:05;;;;;;;;;;;;;;;15.84;61.80;96145.34;4996951;28;19917;-79
2023/03/24 00:29:31;;;;;;;;;;;;;;;15.95;61.37;96143.22;5026353;28;19924;-78
2023/03/24 00:31:56;;;;;;;;;;;;;;;15.93;61.24;96146.13;4988584;28;19921;-78
2023/03/24 00:34:21;;;;;;;;;;;;;;;15.87;61.25;96135.00;5011717;28;20021;-79
2023/03/24 00:36:50;;;;;;;;;;;;;;;15.88;61.56;96144.41;4994383;28;20451;-77
2023/03/24 00:39:16;;;;;;;;;;;;;;;15.99;60.79;96141.50;4995292;28;20205;-79
2023/03/24 00:41:43;;;;;;;;;;;;;;;16.00;60.97;96141.22;5025473;28;19917;-78
2023/03/24 00:44:16;;;;;;;;;;;;;;;16.01;60.85;96147.25;4997907;28;19925;-78
2023/03/24 00:46:44;;;;;;;;;;;;;;;15.96;60.38;96147.41;4995991;28;20440;-77
2023/03/24 00:49:11;;;;;;;;;;;;;;;16.04;60.70;96139.53;5028523;28;20016;-77
2023/03/24 00:51:40;;;;;;;;;;;;;;;15.98;61.08;96140.75;5015904;28;20393;-78
2023/03/24 00:54:06;;;;;;;;;;;;;;;16.01;60.58;96132.25;5008154;28;19956;-78
2023/03/24 00:56:54;;;;;;;;;;;;;;;16.03;60.01;96126.72;5002645;28;20019;-78
2023/03/24 00:59:20;;;;;;;;;;;;;;;16.13;60.31;96126.44;5002029;28;19928;-78
2023/03/24 01:01:45;;;;;;;;;;;;;;;16.19;59.92;96129.69;5015168;28;19929;-79
2023/03/24 01:04:10;;;;;;;;;;;;;;;16.00;60.40;96122.84;4986511;28;19944;-78
2023/03/24 01:06:36;;;;;;;;;;;;;;;16.20;59.77;96123.34;5002481;28;19917;-78
2023/03/24 01:09:04;;;;;;;;;;;;;;;16.23;59.55;96117.50;4985275;28;19921;-77
2023/03/24 01:11:29;;;;;;;;;;;;;;;16.29;59.63;96129.38;5001298;28;19921;-78
2023/03/24 01:13:55;;;;;;;;;;;;;;;16.28;58.97;96131.25;5002240;28;20489;-78
2023/03/24 01:16:24;;;;;;;;;;;;;;;16.25;59.47;96121.34;4997693;28;19968;-79
2023/03/24 01:18:49;;;;;;;;;;;;;;;15.99;60.34;96117.88;4973236;28;20004;-79
2023/03/24 01:21:14;;;;;;;;;;;;;;;16.25;59.59;96121.34;4975994;28;20062;-78
2023/03/24 01:23:40;;;;;;;;;;;;;;;16.26;59.85;96116.88;4993073;28;20296;-78
2023/03/24 01:26:06;;;;;;;;;;;;;;;16.02;60.36;96104.16;4994295;28;19928;-78
2023/03/24 01:28:32;;;;;;;;;;;;;;;16.25;59.60;96108.22;4994069;28;19924;-79
2023/03/24 01:30:57;;;;;;;;;;;;;;;16.14;60.02;96112.19;4989459;28;19924;-77
2023/03/24 01:33:23;;;;;;;;;;;;;;;16.29;59.33;96093.38;5013183;28;19921;-78
2023/03/24 01:35:48;;;;;;;;;;;;;;;16.37;59.35;96096.34;5014728;28;20220;-78
2023/03/24 01:38:14;;;;;;;;;;;;;;;16.45;58.84;96109.50;4993007;28;19931;-79
2023/03/24 01:40:40;;;;;;;;;;;;;;;16.30;60.43;96091.53;4991621;28;20388;-79
2023/03/24 01:43:07;;;;;;;;;;;;;;;16.23;60.54;96088.59;5009149;28;20020;-80
2023/03/24 01:45:39;;;;;;;;;;;;;;;16.16;59.89;96088.25;5009624;28;19917;-77
2023/03/24 01:48:05;;;;;;;;;;;;;;;16.24;60.17;96085.66;5025043;28;19923;-78
2023/03/24 01:50:30;;;;;;;;;;;;;;;16.19;60.17;96070.03;5012713;28;19917;-78
2023/03/24 01:52:55;;;;;;;;;;;;;;;16.22;60.07;96064.19;5010629;28;19928;-78
2023/03/24 01:55:20;;;;;;;;;;;;;;;16.12;60.82;96053.97;4994615;28;20400;-78
2023/03/24 01:57:53;;;;;;;;;;;;;;;16.43;59.70;96053.84;5008160;28;19917;-78
2023/03/24 02:00:20;;;;;;;;;;;;;;;16.38;59.42;96048.75;5026566;28;19921;-78
2023/03/24 02:02:53;;;;;;;;;;;;;;;16.25;59.46;96047.81;5024261;22;19929;-78
2023/03/24 02:05:20;;;;;;;;;;;;;;;16.25;59.18;96042.56;4968572;28;19922;-79
2023/03/24 02:07:48;;;;;;;;;;;;;;;16.27;59.31;96035.13;4981586;28;19922;-79
2023/03/24 02:10:15;;;;;;;;;;;;;;;16.39;58.88;96041.63;4972911;28;19928;-78
2023/03/24 02:12:41;;;;;;;;;;;;;;;16.35;59.07;96040.69;4961889;28;19918;-78
2023/03/24 02:15:07;;;;;;;;;;;;;;;16.26;59.23;96038.84;4975924;28;19940;-78
2023/03/24 02:17:33;;;;;;;;;;;;;;;16.22;59.15;96045.03;4981896;28;20292;-78
2023/03/24 02:20:19;;;;;;;;;;;;;;;16.50;58.64;96042.84;4992768;28;19918;-79
2023/03/24 02:23:03;;;;;;;;;;;;;;;16.72;58.23;96044.53;4974532;28;19928;-78
2023/03/24 02:25:28;;;;;;;;;;;;;;;16.66;58.48;96043.94;4990842;28;20400;-78
2023/03/24 02:28:17;;;;;;;;;;;;;;;16.49;59.38;96043.97;4992252;28;20056;-78
2023/03/24 02:30:48;;;;;;;;;;;;;;;16.44;60.06;96038.84;4996754;28;20290;-77
2023/03/24 02:33:25;;;;;;;;;;;;;;;16.38;59.76;96037.44;4980718;28;20340;-78
2023/03/24 02:35:56;;;;;;;;;;;;;;;16.64;59.17;96032.97;4991417;28;20440;-78
2023/03/24 02:38:21;;;;;;;;;;;;;;;16.50;59.22;96040.22;4995538;28;19925;-78
2023/03/24 02:40:47;;;;;;;;;;;;;;;16.61;59.10;96030.19;4984254;28;19919;-78
2023/03/24 02:43:30;;;;;;;;;;;;;;;16.61;58.79;96038.84;4989652;28;20020;-78
2023/03/24 02:45:56;;;;;;;;;;;;;;;16.85;57.83;96034.97;4974434;28;19925;-78
2023/03/24 02:48:37;;;;;;;;;;;;;;;16.76;58.39;96040.22;4988526;28;19922;-79
2023/03/24 02:51:02;;;;;;;;;;;;;;;16.73;59.24;96034.81;4977373;28;19979;-78
2023/03/24 02:53:30;;;;;;;;;;;;;;;16.39;60.58;96041.63;4991801;28;19950;-77
2023/03/24 02:55:59;;;;;;;;;;;;;;;16.63;60.31;96039.28;4975100;28;19965;-78
2023/03/24 02:58:31;;;;;;;;;;;;;;;16.57;60.87;96056.31;4991355;28;19964;-78
2023/03/24 03:00:58;;;;;;;;;;;;;;;16.59;60.29;96038.38;4975909;28;20360;-79
2023/03/24 03:03:45;;;;;;;;;;;;;;;16.54;60.85;96049.06;4965309;28;19925;-77
2023/03/24 03:06:12;;;;;;;;;;;;;;;16.49;61.00;96046.59;4988829;28;19918;-77
2023/03/24 03:08:38;;;;;;;;;;;;;;;16.62;60.67;96061.41;4989295;28;20416;-79
2023/03/24 03:11:03;;;;;;;;;;;;;;;15.74;63.41;96044.00;4980157;28;19925;-78
2023/03/24 03:13:33;;;;;;;;;;;;;;;16.23;62.30;96054.47;4989847;28;19917;-78
2023/03/24 03:16:02;;;;;;;;;;;;;;;16.42;62.10;96039.16;4990969;28;19925;-78
2023/03/24 03:18:29;;;;;;;;;;;;;;;16.18;62.94;96042.25;4991283;28;19917;-77
2023/03/24 03:20:57;;;;;;;;;;;;;;;16.36;62.81;96044.88;4990798;28;19918;-77
2023/03/24 03:23:23;;;;;;;;;;;;;;;16.48;62.51;96050.28;4973970;28;19926;-79
2023/03/24 03:25:49;;;;;;;;;;;;;;;16.23;62.99;96043.97;4983464;28;19961;-79
2023/03/24 03:28:16;;;;;;;;;;;;;;;16.27;62.81;96044.88;4985345;28;20429;-77
2023/03/24 03:30:50;;;;;;;;;;;;;;;16.42;62.69;96048.91;4972475;28;19918;-78
2023/03/24 03:33:24;;;;;;;;;;;;;;;16.25;63.40;96063.56;4977912;28;20368;-78
2023/03/24 03:35:55;;;;;;;;;;;;;;;16.42;63.27;96064.66;4989111;28;20252;-78
2023/03/24 03:38:20;;;;;;;;;;;;;;;16.56;62.62;96065.28;5004524;28;19925;-79
2023/03/24 03:40:49;;;;;;;;;;;;;;;16.15;64.41;96074.38;4984774;28;20374;-79
2023/03/24 03:43:15;;;;;;;;;;;;;;;16.23;64.00;96076.25;4972186;28;19925;-80
2023/03/24 03:45:40;;;;;;;;;;;;;;;16.31;64.17;96073.91;4988083;28;19925;-79
2023/03/24 03:48:05;;;;;;;;;;;;;;;15.93;65.73;96077.13;4983028;28;19918;-78
2023/03/24 03:50:31;;;;;;;;;;;;;;;16.28;64.53;96086.59;4972735;28;19957;-79
2023/03/24 03:52:56;;;;;;;;;;;;;;;16.27;64.58;96089.53;4988089;28;19953;-78
2023/03/24 03:55:21;;;;;;;;;;;;;;;15.99;65.63;96091.63;4956445;28;19921;-79
2023/03/24 03:57:47;;;;;;;;;;;;;;;16.04;65.21;96094.09;4971454;28;19992;-78
2023/03/24 04:00:14;;;;;;;;;;;;;;;15.60;67.16;96087.94;4991135;28;19918;-78
2023/03/24 04:02:49;;;;;;;;;;;;;;;15.82;66.08;96103.66;4983110;28;19926;-78
2023/03/24 04:05:33;;;;;;;;;;;;;;;16.23;65.15;96104.38;4985602;28;19933;-77
2023/03/24 04:08:05;;;;;;;;;;;;;;;15.94;66.07;96105.69;4984157;28;19922;-78
2023/03/24 04:10:35;;;;;;;;;;;;;;;15.89;66.61;96109.22;4981175;28;20470;-78
2023/03/24 04:13:04;;;;;;;;;;;;;;;15.85;66.91;96118.78;4970057;28;20061;-78
2023/03/24 04:15:33;;;;;;;;;;;;;;;16.01;66.39;96118.38;4995940;28;19956;-78
2023/03/24 04:17:58;;;;;;;;;;;;;;;16.08;66.05;96118.69;4982015;28;19926;-79
2023/03/24 04:20:24;;;;;;;;;;;;;;;15.81;67.10;96112.59;4970482;28;19926;-79
2023/03/24 04:23:13;;;;;;;;;;;;;;;15.98;66.52;96118.97;4971940;28;19930;-79
2023/03/24 04:25:55;;;;;;;;;;;;;;;16.11;66.29;96118.09;4973552;28;19922;-79
2023/03/24 04:28:39;;;;;;;;;;;;;;;15.93;66.50;96114.63;4987562;28;20373;-77
2023/03/24 04:31:24;;;;;;;;;;;;;;;15.88;66.99;96097.16;4986546;28;20452;-78
2023/03/24 04:33:51;;;;;;;;;;;;;;;15.86;67.11;96109.81;4994387;28;19961;-78
2023/03/24 04:36:21;;;;;;;;;;;;;;;16.15;65.79;96111.13;4980630;28;20351;-78
2023/03/24 04:38:49;;;;;;;;;;;;;;;15.98;66.60;96108.47;4977480;28;19917;-79
2023/03/24 04:41:16;;;;;;;;;;;;;;;15.88;67.03;96102.41;4971632;28;19921;-79
2023/03/24 04:43:42;;;;;;;;;;;;;;;15.84;67.67;96101.47;4987499;28;19945;-78
2023/03/24 04:46:08;;;;;;;;;;;;;;;15.77;67.50;96090.66;5000927;28;19917;-78
2023/03/24 04:48:33;;;;;;;;;;;;;;;15.93;67.45;96098.88;4989770;28;19922;-79
2023/03/24 04:50:59;;;;;;;;;;;;;;;16.06;66.40;96099.84;4985002;28;20317;-79
2023/03/24 04:53:25;;;;;;;;;;;;;;;15.97;66.89;96083.28;4971506;28;20432;-80
2023/03/24 04:55:59;;;;;;;;;;;;;;;16.04;66.57;96083.59;4996895;28;19922;-80
2023/03/24 04:58:25;;;;;;;;;;;;;;;16.19;66.15;96072.66;4992966;28;19925;-79
2023/03/24 05:00:50;;;;;;;;;;;;;;;15.86;66.89;96062.56;4974122;28;19918;-79
2023/03/24 05:03:16;;;;;;;;;;;;;;;15.92;67.20;96076.34;4972434;28;19984;-79
2023/03/24 05:05:42;;;;;;;;;;;;;;;15.95;66.69;96067.06;4988867;28;20226;-79
2023/03/24 05:08:07;;;;;;;;;;;;;;;15.98;66.81;96071.72;4972978;28;20385;-78
2023/03/24 05:10:34;;;;;;;;;;;;;;;16.04;66.45;96067.84;4972841;28;19926;-79
2023/03/24 05:12:59;;;;;;;;;;;;;;;16.04;66.43;96067.84;4969319;28;19957;-79
2023/03/24 05:15:25;;;;;;;;;;;;;;;15.78;67.88;96076.47;4987841;28;19976;-78
2023/03/24 05:17:51;;;;;;;;;;;;;;;15.84;66.96;96064.72;4971340;28;19918;-81
2023/03/24 05:20:16;;;;;;;;;;;;;;;16.02;66.57;96064.75;4960032;28;19940;-79
2023/03/24 05:22:42;;;;;;;;;;;;;;;15.82;67.01;96055.63;4987635;28;19971;-79
2023/03/24 05:25:07;;;;;;;;;;;;;;;15.76;67.35;96054.97;4972480;28;19922;-82
2023/03/24 05:27:32;;;;;;;;;;;;;;;15.94;66.62;96057.63;4983988;28;20270;-77
2023/03/24 05:29:57;;;;;;;;;;;;;;;15.74;67.33;96059.75;4970400;28;19917;-79
2023/03/24 05:32:23;;;;;;;;;;;;;;;15.99;66.49;96060.91;4953324;28;19921;-79
2023/03/24 05:34:48;;;;;;;;;;;;;;;15.94;66.84;96068.94;4988111;28;19917;-79
2023/03/24 05:37:15;;;;;;;;;;;;;;;15.91;66.65;96064.28;4953885;28;19922;-79
2023/03/24 05:39:41;;;;;;;;;;;;;;;15.76;67.66;96075.97;4983611;28;19918;-79
2023/03/24 05:42:06;;;;;;;;;;;;;;;15.68;67.55;96071.47;4986691;28;20419;-79
2023/03/24 05:44:31;;;;;;;;;;;;;;;15.79;67.45;96082.47;4984303;28;19922;-79
2023/03/24 05:46:57;;;;;;;;;;;;;;;16.04;66.56;96078.34;4959772;28;20012;-78
2023/03/24 05:49:22;;;;;;;;;;;;;;;15.72;67.56;96080.28;4978907;28;19922;-80
2023/03/24 05:51:47;;;;;;;;;;;;;;;15.87;66.97;96079.88;4980228;28;19918;-79
2023/03/24 05:54:12;;;;;;;;;;;;;;;15.52;68.06;96079.75;4986913;28;19917;-79
2023/03/24 05:56:38;;;;;;;;;;;;;;;15.95;66.65;96090.69;4963652;28;19918;-80
2023/03/24 05:59:03;;;;;;;;;;;;;;;15.84;67.01;96083.09;4989585;28;19961;-80
2023/03/24 06:01:29;;;;;;;;;;;;;;;15.80;67.57;96092.69;4967162;28;20289;-79
2023/03/24 06:03:54;;;;;;;;;;;;;;;15.55;68.34;96073.09;4971037;28;19929;-80
2023/03/24 06:06:19;;;;;;;;;;;;;;;15.50;68.55;96095.00;4970572;28;19972;-80
2023/03/24 06:08:45;;;;;;;;;;;;;;;15.75;67.97;96077.06;4967087;28;19921;-80
2023/03/24 06:11:10;;;;;;;;;;;;;;;15.90;67.34;96089.78;4953140;28;19922;-80
2023/03/24 06:13:35;;;;;;;;;;;;;;;15.42;68.90;96082.63;4972724;28;19938;-79
2023/03/24 06:16:01;;;;;;;;;;;;;;;15.44;68.91;96083.09;4968633;28;20004;-80
2023/03/24 06:18:26;;;;;;;;;;;;;;;15.68;67.72;96087.22;4983414;28;19928;-81
2023/03/24 06:20:55;;;;;;;;;;;;;;;15.62;68.04;96078.69;4949833;28;19922;-79
2023/03/24 06:23:24;;;;;;;;;;;;;;;15.69;67.75;96078.25;4986294;28;20333;-79
2023/03/24 06:25:53;;;;;;;;;;;;;;;15.66;67.92;96073.59;4991484;28;20317;-78
2023/03/24 06:28:18;;;;;;;;;;;;;;;15.73;68.03;96090.47;4951766;28;19925;-78
2023/03/24 06:30:45;;;;;;;;;;;;;;;15.69;67.83;96086.88;4990196;28;19929;-79
2023/03/24 06:33:11;;;;;;;;;;;;;;;15.87;67.46;96082.50;4960111;28;19924;-78
2023/03/24 06:35:36;;;;;;;;;;;;;;;15.57;68.53;96083.31;4950404;28;20377;-79
2023/03/24 06:38:01;;;;;;;;;;;;;;;15.65;68.32;96083.34;4971006;28;19918;-79
2023/03/24 06:40:27;;;;;;;;;;;;;;;15.61;68.23;96085.03;4988303;28;20377;-79
2023/03/24 06:42:52;;;;;;;;;;;;;;;15.95;67.34;96090.69;4986289;28;20275;-79
2023/03/24 06:45:18;;;;;;;;;;;;;;;16.03;66.88;96087.31;4968063;28;19941;-79
2023/03/24 06:47:43;;;;;;;;;;;;;;;15.95;67.13;96088.06;4982597;28;20249;-79
2023/03/24 06:50:09;;;;;;;;;;;;;;;15.74;67.59;96085.97;4988241;28;19918;-79
2023/03/24 06:52:34;;;;;;;;;;;;;;;15.59;68.13;96091.63;4967511;28;19922;-81
2023/03/24 06:55:00;;;;;;;;;;;;;;;15.76;67.73;96094.34;4968559;28;19945;-80
2023/03/24 06:57:26;;;;;;;;;;;;;;;15.87;67.38;96108.75;4971882;28;19918;-79
2023/03/24 06:59:51;;;;;;;;;;;;;;;15.99;67.16;96096.88;4970488;28;20024;-78
2023/03/24 07:02:17;;;;;;;;;;;;;;;15.49;68.00;96101.34;4954758;28;19929;-79
2023/03/24 07:04:42;;;;;;;;;;;;;;;15.73;68.15;96094.94;4966037;28;20237;-79
2023/03/24 07:07:08;;;;;;;;;;;;;;;15.60;68.03;96086.09;4969561;28;19914;-79
2023/03/24 07:09:33;;;;;;;;;;;;;;;15.71;67.55;96083.97;4988293;28;20284;-80
2023/03/24 07:11:58;;;;;;;;;;;;;;;15.60;68.60;96101.06;4988370;28;19921;-79
2023/03/24 07:14:26;;;;;;;;;;;;;;;15.71;67.91;96099.72;4982512;28;19933;-79
2023/03/24 07:16:52;;;;;;;;;;;;;;;15.31;69.39;96099.69;4990295;28;19922;-80
2023/03/24 07:19:17;;;;;;;;;;;;;;;15.52;68.64;96113.84;4991011;28;20313;-79
2023/03/24 07:21:43;;;;;;;;;;;;;;;15.65;68.31;96119.31;4991578;28;19928;-78
2023/03/24 07:24:08;;;;;;;;;;;;;;;15.58;67.92;96116.34;4991501;28;19968;-78
2023/03/24 07:26:33;;;;;;;;;;;;;;;15.23;68.70;96113.53;4990854;28;20398;-78
2023/03/24 07:28:59;;;;;;;;;;;;;;;15.52;68.22;96116.47;4991320;28;19921;-79
2023/03/24 07:31:24;;;;;;;;;;;;;;;15.57;67.86;96123.41;4990846;28;19921;-78
2023/03/24 07:33:49;;;;;;;;;;;;;;;15.64;67.88;96120.38;4989072;28;19918;-78
2023/03/24 07:36:15;;;;;;;;;;;;;;;15.64;67.44;96117.75;4971285;28;19921;-78
2023/03/24 07:38:40;;;;;;;;;;;;;;;15.70;67.63;96121.78;4969203;28;19924;-80
2023/03/24 07:41:06;;;;;;;;;;;;;;;15.77;67.21;96124.00;4990416;28;19918;-78
2023/03/24 07:43:31;;;;;;;;;;;;;;;15.63;68.00;96129.34;4986511;28;19922;-78
2023/03/24 07:45:56;;;;;;;;;;;;;;;15.55;67.87;96128.19;4971559;28;20049;-78
2023/03/24 07:48:22;;;;;;;;;;;;;;;15.34;68.66;96131.34;4982401;28;20273;-79
2023/03/24 07:50:47;;;;;;;;;;;;;;;15.73;67.17;96127.22;4989137;28;20115;-78
2023/03/24 07:53:17;;;;;;;;;;;;;;;15.80;67.11;96131.25;4972079;28;19918;-79
2023/03/24 07:55:42;;;;;;;;;;;;;;;15.74;66.75;96139.22;4974696;28;19971;-79
2023/03/24 07:58:07;;;;;;;;;;;;;;;15.44;67.86;96134.78;4973149;28;20417;-78
2023/03/24 08:00:33;;;;;;;;;;;;;;;15.95;66.88;96145.84;4999265;28;19940;-78
2023/03/24 08:02:59;;;;;;;;;;;;;;;15.93;66.35;96132.25;4989569;28;19922;-79
2023/03/24 08:05:24;;;;;;;;;;;;;;;15.67;67.52;96133.66;4990377;28;19921;-79
2023/03/24 08:07:54;;;;;;;;;;;;;;;15.84;67.14;96143.47;4973101;28;19918;-78
2023/03/24 08:10:21;;;;;;;;;;;;;;;15.72;67.40;96136.16;4958119;28;20044;-79
2023/03/24 08:12:46;;;;;;;;;;;;;;;15.79;66.53;96138.38;4973886;28;20008;-79
2023/03/24 08:15:12;;;;;;;;;;;;;;;15.44;68.03;96150.50;4989868;28;20008;-79
2023/03/24 08:17:37;;;;;;;;;;;;;;;15.82;67.07;96142.25;4973895;28;19917;-78
2023/03/24 08:20:11;;;;;;;;;;;;;;;16.00;66.20;96143.06;4989715;28;20016;-78
2023/03/24 08:22:38;;;;;;;;;;;;;;;15.72;67.25;96135.38;4974561;28;20408;-79
2023/03/24 08:25:04;;;;;;;;;;;;;;;15.80;67.36;96126.00;4971573;28;19929;-78
2023/03/24 08:27:30;;;;;;;;;;;;;;;16.08;66.06;96137.06;4972355;28;19918;-78
2023/03/24 08:29:55;;;;;;;;;;;;;;;15.94;66.64;96129.31;4986554;28;19925;-79
2023/03/24 08:32:20;;;;;;;;;;;;;;;15.62;67.74;96135.66;4986674;28;19959;-79
2023/03/24 08:34:45;;;;;;;;;;;;;;;15.53;68.17;96152.13;4987239;28;19922;-79
2023/03/24 08:37:11;;;;;;;;;;;;;;;15.96;67.11;96155.25;4987914;28;19924;-79
2023/03/24 08:39:36;;;;;;;;;;;;;;;15.88;66.92;96144.41;4990018;28;19968;-78
2023/03/24 08:42:01;;;;;;;;;;;;;;;15.72;67.06;96148.50;4955368;28;20370;-78
2023/03/24 08:44:27;;;;;;;;;;;;;;;15.57;67.55;96154.13;4965832;28;19928;-78
2023/03/24 08:46:52;;;;;;;;;;;;;;;15.42;68.25;96158.72;4973186;28;19917;-78
2023/03/24 08:49:17;;;;;;;;;;;;;;;15.90;65.99;96160.66;4973093;28;20378;-78
2023/03/24 08:51:43;;;;;;;;;;;;;;;15.61;66.94;96142.75;4973507;28;19918;-79
2023/03/24 08:54:11;;;;;;;;;;;;;;;15.86;66.62;96162.31;4972671;28;20373;-78
2023/03/24 08:56:36;;;;;;;;;;;;;;;16.20;65.87;96171.41;4988269;28;20308;-78
2023/03/24 08:59:03;;;;;;;;;;;;;;;15.96;66.09;96163.16;4972486;28;19918;-80
2023/03/24 09:01:28;;;;;;;;;;;;;;;15.95;66.73;96167.59;4986032;28;19918;-79
2023/03/24 09:03:54;;;;;;;;;;;;;;;16.20;65.52;96171.41;4985912;28;19945;-78
2023/03/24 09:06:20;;;;;;;;;;;;;;;15.92;66.28;96165.59;4986219;28;19925;-79
2023/03/24 09:08:45;;;;;;;;;;;;;;;15.48;67.68;96167.22;4986179;28;19991;-79
2023/03/24 09:11:20;;;;;;;;;;;;;;;15.64;67.54;96168.38;4993858;28;19918;-80
2023/03/24 09:13:46;;;;;;;;;;;;;;;15.49;67.81;96169.53;4988646;28;20445;-80
2023/03/24 09:16:11;;;;;;;;;;;;;;;15.57;68.55;96175.13;4988579;28;20012;-80
2023/03/24 09:18:37;;;;;;;;;;;;;;;15.31;68.21;96171.28;4973400;28;19917;-79
2023/03/24 09:21:02;;;;;;;;;;;;;;;15.93;66.87;96176.88;4972838;28;19926;-78
2023/03/24 09:23:29;;;;;;;;;;;;;;;15.76;66.82;96164.44;4972539;28;19937;-79
2023/03/24 09:25:55;;;;;;;;;;;;;;;15.55;67.34;96178.06;4981759;28;20418;-79
2023/03/24 09:28:20;;;;;;;;;;;;;;;15.57;67.37;96180.38;4997230;28;19926;-78
2023/03/24 09:30:46;;;;;;;;;;;;;;;15.52;67.83;96189.94;4985858;28;19965;-80
2023/03/24 09:33:11;;;;;;;;;;;;;;;15.67;67.17;96180.13;4969117;28;19918;-78
2023/03/24 09:35:36;;;;;;;;;;;;;;;15.15;69.18;96191.06;4993918;28;20385;-79
2023/03/24 09:38:02;;;;;;;;;;;;;;;15.42;68.23;96205.13;4956740;28;19918;-79
2023/03/24 09:40:28;;;;;;;;;;;;;;;15.46;68.41;96190.34;4972712;28;19918;-79
2023/03/24 09:43:08;;;;;;;;;;;;;;;15.51;67.88;96188.38;4988234;28;20072;-79
2023/03/24 09:45:35;;;;;;;;;;;;;;;15.67;67.82;96193.25;4966319;28;19930;-79
2023/03/24 09:48:03;;;;;;;;;;;;;;;15.84;66.88;96195.97;4972459;28;19968;-78
2023/03/24 09:50:38;;;;;;;;;;;;;;;15.67;67.71;96183.50;4976820;28;19953;-80
2023/03/24 09:53:08;;;;;;;;;;;;;;;15.76;67.29;96195.94;4985096;28;20397;-79
2023/03/24 09:55:33;;;;;;;;;;;;;;;15.82;67.48;96186.88;4985890;28;19918;-78
2023/03/24 09:58:01;;;;;;;;;;;;;;;15.42;69.13;96190.19;4985358;28;20416;-79
2023/03/24 10:00:28;;;;;;;;;;;;;;;15.76;67.85;96198.56;4995791;28;19922;-79
2023/03/24 10:02:56;;;;;;;;;;;;;;;15.86;67.08;96195.69;4971705;28;19993;-79
2023/03/24 10:05:36;;;;;;;;;;;;;;;15.12;69.25;96191.66;4988676;28;20372;-79
2023/03/24 10:08:14;;;;;;;;;;;;;;;15.51;68.98;96213.84;4971950;28;19988;-79
2023/03/24 10:10:42;;;;;;;;;;;;;;;15.87;67.38;96215.63;4988483;28;20278;-79
2023/03/24 10:13:12;;;;;;;;;;;;;;;15.88;67.09;96241.53;4986634;28;19917;-79
2023/03/24 10:15:42;;;;;;;;;;;;;;;15.78;66.65;96239.19;4969550;28;19918;-79
2023/03/24 10:18:11;;;;;;;;;;;;;;;15.85;66.17;96247.41;5001586;28;19921;-79
2023/03/24 10:21:14;;;;;;;;;;;;;;;15.58;66.42;96258.78;4983380;28;20016;-81
2023/03/24 10:24:09;;;;;;;;;;;;;;;15.79;65.56;96266.97;5022514;28;20503;-79
2023/03/24 10:26:34;;;;;;;;;;;;;;;15.84;65.62;96293.09;5003134;28;19932;-79
2023/03/24 10:29:18;;;;;;;;;;;;;;;15.95;64.74;96291.00;5034106;28;19918;-78
2023/03/24 10:31:44;;;;;;;;;;;;;;;15.77;64.47;96290.13;5006992;28;20531;-78
2023/03/24 10:34:10;;;;;;;;;;;;;;;15.82;64.46;96297.13;4997139;28;19996;-79
2023/03/24 10:36:42;;;;;;;;;;;;;;;15.71;64.75;96294.69;5006950;28;19933;-79
2023/03/24 10:39:13;;;;;;;;;;;;;;;15.63;65.63;96297.25;5022777;28;20451;-79
2023/03/24 10:41:39;;;;;;;;;;;;;;;15.83;64.65;96304.66;5022675;28;19918;-79
2023/03/24 10:44:05;;;;;;;;;;;;;;;15.78;64.96;96306.63;5026240;28;20000;-79
2023/03/24 10:46:31;;;;;;;;;;;;;;;15.89;65.01;96303.47;5026666;28;19925;-79
2023/03/24 10:49:07;;;;;;;;;;;;;;;15.93;65.24;96316.00;5009541;28;20359;-78
2023/03/24 10:51:35;;;;;;;;;;;;;;;15.94;65.09;96304.41;5022820;28;19920;-78
2023/03/24 10:54:11;;;;;;;;;;;;;;;16.04;64.96;96310.22;5016520;28;19918;-78
2023/03/24 10:56:44;;;;;;;;;;;;;;;16.13;64.70;96317.38;4970764;28;19961;-78
2023/03/24 10:59:19;;;;;;;;;;;;;;;16.14;64.56;96303.91;4971874;28;19918;-79
2023/03/24 11:01:44;;;;;;;;;;;;;;;16.06;64.29;96297.56;4987948;28;19921;-78
2023/03/24 11:04:10;;;;;;;;;;;;;;;16.22;64.43;96297.94;4973484;28;20349;-78
2023/03/24 11:06:35;;;;;;;;;;;;;;;16.15;63.75;96308.09;4975637;28;19960;-79
2023/03/24 11:09:16;;;;;;;;;;;;;;;16.18;64.53;96314.63;4990380;28;19918;-78
2023/03/24 11:11:41;;;;;;;;;;;;;;;16.22;64.24;96324.19;4985557;28;20392;-78
2023/03/24 11:14:17;;;;;;;;;;;;;;;16.09;64.74;96323.22;4997579;28;19917;-79
2023/03/24 11:16:43;;;;;;;;;;;;;;;16.28;64.11;96335.38;4991475;28;19925;-79
2023/03/24 11:19:21;;;;;;;;;;;;;;;16.25;63.81;96336.72;4974102;28;20285;-79
2023/03/24 11:21:47;;;;;;;;;;;;;;;16.22;64.62;96339.19;4971727;28;20341;-78
2023/03/24 11:24:14;;;;;;;;;;;;;;;16.13;64.53;96323.38;4989986;28;19925;-78
2023/03/24 11:26:40;;;;;;;;;;;;;;;15.71;65.19;96326.19;4977560;28;19918;-79
2023/03/24 11:29:15;;;;;;;;;;;;;;;15.90;65.74;96336.53;4980608;28;19972;-78
2023/03/24 11:31:41;;;;;;;;;;;;;;;15.98;65.12;96326.38;4991047;28;20373;-79
2023/03/24 11:34:12;;;;;;;;;;;;;;;15.57;65.61;96317.56;4959556;28;19918;-80
2023/03/24 11:36:47;;;;;;;;;;;;;;;15.99;64.68;96323.47;4992726;28;20008;-79
2023/03/24 11:39:16;;;;;;;;;;;;;;;16.06;65.05;96320.41;4974486;28;19933;-79
2023/03/24 11:41:42;;;;;;;;;;;;;;;16.46;65.15;96320.44;4994455;28;19918;-79
2023/03/24 11:44:13;;;;;;;;;;;;;;;16.96;65.97;96317.53;4971258;28;19926;-78
2023/03/24 11:46:39;;;;;;;;;;;;;;;17.42;63.04;96315.44;4993112;28;20385;-78
2023/03/24 11:49:05;;;;;;;;;;;;;;;17.76;61.67;96312.00;4975173;28;19929;-78
2023/03/24 11:51:34;;;;;;;;;;;;;;;17.81;60.49;96313.72;4974848;28;19918;-78
2023/03/24 11:54:00;;;;;;;;;;;;;;;18.01;59.67;96314.97;4973997;28;19968;-78
2023/03/24 11:56:26;;;;;;;;;;;;;;;17.76;60.58;96306.75;4978012;28;19928;-79
2023/03/24 11:58:54;;;;;;;;;;;;;;;17.51;61.27;96307.53;4978198;28;20028;-78
2023/03/24 12:01:20;;;;;;;;;;;;;;;17.52;59.18;96301.19;4990251;28;19917;-79
2023/03/24 12:03:51;;;;;;;;;;;;;;;17.68;59.91;96302.25;4990087;28;20016;-78
2023/03/24 12:06:35;;;;;;;;;;;;;;;17.83;61.15;96322.06;4989858;28;19918;-79
2023/03/24 12:09:00;;;;;;;;;;;;;;;17.38;60.32;96317.91;4990186;28;19921;-78
2023/03/24 12:11:31;;;;;;;;;;;;;;;17.45;59.93;96312.19;4982020;28;19971;-78
2023/03/24 12:13:57;;;;;;;;;;;;;;;17.50;60.69;96309.41;4989058;28;19929;-77
2023/03/24 12:16:41;;;;;;;;;;;;;;;17.47;60.83;96317.13;4971432;28;19922;-79
2023/03/24 12:19:06;;;;;;;;;;;;;;;17.30;59.46;96310.78;4986677;28;19925;-79
2023/03/24 12:21:46;;;;;;;;;;;;;;;16.84;60.04;96310.25;4971955;28;20381;-78
2023/03/24 12:24:12;;;;;;;;;;;;;;;17.06;60.83;96311.22;4989104;28;19977;-78
2023/03/24 12:26:37;;;;;;;;;;;;;;;17.09;63.01;96309.84;5005755;28;19918;-78
2023/03/24 12:29:22;;;;;;;;;;;;;;;17.69;62.14;96301.19;4974839;28;20325;-78
2023/03/24 12:31:54;;;;;;;;;;;;;;;17.85;60.55;96303.31;4989843;28;19960;-77
2023/03/24 12:34:29;;;;;;;;;;;;;;;18.01;58.16;96293.09;5005623;28;19917;-79
2023/03/24 12:37:20;;;;;;;;;;;;;;;18.40;59.71;96288.63;5003104;28;20112;-79
2023/03/24 12:39:46;;;;;;;;;;;;;;;19.01;56.22;96304.19;5005957;28;20286;-79
2023/03/24 12:42:11;;;;;;;;;;;;;;;19.03;54.74;96297.47;4979840;28;19925;-78
2023/03/24 12:44:40;;;;;;;;;;;;;;;18.93;56.57;96297.84;4981423;28;19922;-78
2023/03/24 12:47:05;;;;;;;;;;;;;;;19.20;55.17;96288.69;5002824;28;19949;-78
2023/03/24 12:49:49;;;;;;;;;;;;;;;19.00;53.47;96284.16;4990980;28;20042;-78
2023/03/24 12:52:33;;;;;;;;;;;;;;;18.36;54.25;96283.22;4988331;28;19926;-78